Time;durP1;ratioP1;P1;durP2;ratioP2;P2;SDS_P1;SDS_P2;PMS_P1;PMS_P2;Temp;Humidity;BMP_temperature;BMP_pressure;BME280_temperature;BME280_humidity;BME280_pressure;Samples;Min_cycle;Max_cycle;Signal;HPM_P1;HPM_P2
2022/07/22 00:01:08;;;;;;;558.88;525.47;;;15.90;99.90;;;;;;5092869;28;20477;-61
2022/07/22 00:03:34;;;;;;;493.95;465.27;;;15.90;99.90;;;;;;5093683;28;20090;-61
2022/07/22 00:05:59;;;;;;;429.27;405.27;;;15.90;99.90;;;;;;5075103;28;20071;-60
2022/07/22 00:08:25;;;;;;;465.55;437.45;;;15.80;99.90;;;;;;5076551;28;20463;-60
2022/07/22 00:10:51;;;;;;;460.17;431.67;;;15.80;99.90;;;;;;5076300;28;20041;-61
2022/07/22 00:13:17;;;;;;;443.33;418.38;;;15.80;99.90;;;;;;5081232;28;20040;-60
2022/07/22 00:15:43;;;;;;;397.30;374.25;;;15.70;99.90;;;;;;5096730;28;20051;-60
2022/07/22 00:18:08;;;;;;;464.73;437.52;;;15.70;99.90;;;;;;5095983;28;20044;-60
2022/07/22 00:20:34;;;;;;;412.33;388.60;;;15.70;99.90;;;;;;5096077;28;20044;-60
2022/07/22 00:23:00;;;;;;;439.60;413.85;;;15.70;99.90;;;;;;5095872;28;20044;-60
2022/07/22 00:25:28;;;;;;;365.85;345.88;;;15.70;99.90;;;;;;5095711;28;20090;-60
2022/07/22 00:27:53;;;;;;;345.15;326.65;;;15.70;99.90;;;;;;5096226;28;20048;-60
2022/07/22 00:30:20;;;;;;;438.52;412.02;;;;;;;;;;5095000;28;20132;-60
2022/07/22 00:32:45;;;;;;;403.77;380.02;;;15.60;99.90;;;;;;5074880;28;20068;-60
2022/07/22 00:35:11;;;;;;;407.33;384.60;;;15.60;99.90;;;;;;5075988;28;20041;-60
2022/07/22 00:37:37;;;;;;;352.80;333.48;;;15.50;99.90;;;;;;5057879;28;20178;-61
2022/07/22 00:40:04;;;;;;;437.23;410.50;;;15.50;99.90;;;;;;5074723;28;20075;-60
2022/07/22 00:42:30;;;;;;;425.13;400.33;;;15.50;99.90;;;;;;5075606;28;20048;-60
2022/07/22 00:44:56;;;;;;;441.95;415.90;;;15.50;99.90;;;;;;5059267;28;20068;-60
2022/07/22 00:47:22;;;;;;;366.70;346.30;;;15.60;99.90;;;;;;5095477;28;20044;-61
2022/07/22 00:49:48;;;;;;;453.70;426.85;;;15.60;99.90;;;;;;5076855;28;20094;-61
2022/07/22 00:52:14;;;;;;;366.17;346.52;;;15.50;99.90;;;;;;5077231;28;20123;-60
2022/07/22 00:54:40;;;;;;;406.73;384.27;;;15.60;99.90;;;;;;5095178;28;20432;-60
2022/07/22 00:57:06;;;;;;;432.77;407.83;;;15.60;99.90;;;;;;5092577;28;20052;-61
2022/07/22 00:59:32;;;;;;;350.67;332.88;;;15.60;99.90;;;;;;5057338;28;20075;-60
2022/07/22 01:01:58;;;;;;;416.75;393.50;;;15.60;99.90;;;;;;5074238;28;20044;-61
2022/07/22 01:04:24;;;;;;;422.10;398.17;;;15.70;99.90;;;;;;5039793;28;20483;-60
2022/07/22 01:06:50;;;;;;;461.83;435.02;;;15.60;99.90;;;;;;5057030;28;20044;-60
2022/07/22 01:09:16;;;;;;;456.30;429.25;;;15.60;99.90;;;;;;5056267;28;20067;-61
2022/07/22 01:11:41;;;;;;;421.02;396.92;;;15.70;99.90;;;;;;5075039;28;20059;-61
2022/07/22 01:14:08;;;;;;;419.70;396.02;;;15.60;99.90;;;;;;5074200;28;20047;-60
2022/07/22 01:16:34;;;;;;;387.73;366.42;;;15.70;99.90;;;;;;5056208;28;20063;-60
2022/07/22 01:19:00;;;;;;;413.73;391.00;;;15.60;99.90;;;;;;5057007;28;20036;-61
2022/07/22 01:21:26;;;;;;;391.50;370.02;;;15.60;99.90;;;;;;5056255;28;20179;-60
2022/07/22 01:23:52;;;;;;;423.42;399.77;;;15.60;99.90;;;;;;5056573;28;20041;-60
2022/07/22 01:26:18;;;;;;;353.75;335.30;;;15.60;99.90;;;;;;5073923;28;20044;-61
2022/07/22 01:28:44;;;;;;;451.52;425.80;;;15.70;99.90;;;;;;5055385;28;20044;-60
2022/07/22 01:31:10;;;;;;;483.83;455.65;;;15.70;99.90;;;;;;5056015;28;20079;-60
2022/07/22 01:33:36;;;;;;;618.17;579.35;;;15.80;99.90;;;;;;5073055;28;20064;-61
2022/07/22 01:36:03;;;;;;;619.72;582.42;;;15.80;99.90;;;;;;5073074;28;20106;-60
2022/07/22 01:38:29;;;;;;;466.20;439.73;;;15.80;99.90;;;;;;5056695;28;20091;-60
2022/07/22 01:40:55;;;;;;;474.80;449.05;;;15.70;99.90;;;;;;5072484;28;20055;-61
2022/07/22 01:43:21;;;;;;;442.05;418.25;;;15.80;99.90;;;;;;5055061;28;20045;-61
2022/07/22 01:45:50;;;;;;;525.33;494.02;;;15.80;99.90;;;;;;5056622;28;20058;-60
2022/07/22 01:48:17;;;;;;;550.05;516.75;;;15.80;99.90;;;;;;5074697;28;20047;-60
2022/07/22 01:50:43;;;;;;;586.67;550.63;;;15.70;99.90;;;;;;5054910;28;20147;-60
2022/07/22 01:53:09;;;;;;;558.50;524.00;;;15.70;99.90;;;;;;5056756;28;20045;-61
2022/07/22 01:55:36;;;;;;;555.38;522.75;;;15.70;99.90;;;;;;5056568;28;20048;-60
2022/07/22 01:58:03;;;;;;;526.58;494.88;;;15.70;99.90;;;;;;5055641;28;20045;-60
2022/07/22 02:00:33;;;;;;;542.28;510.83;;;15.60;99.90;;;;;;5055703;28;20541;-60
2022/07/22 02:03:00;;;;;;;568.13;534.35;;;15.70;99.90;;;;;;5056578;28;20147;-61
2022/07/22 02:05:27;;;;;;;553.97;521.85;;;15.70;99.90;;;;;;5055397;28;20492;-60
2022/07/22 02:08:03;;;;;;;551.78;519.65;;;15.60;99.90;;;;;;5055874;28;20032;-61
2022/07/22 02:10:35;;;;;;;567.00;534.42;;;15.70;99.90;;;;;;5036570;28;20072;-60
2022/07/22 02:13:03;;;;;;;607.53;571.13;;;15.70;99.90;;;;;;5035576;28;20045;-61
2022/07/22 02:15:29;;;;;;;612.17;573.13;;;15.70;99.90;;;;;;5019638;28;20045;-60
2022/07/22 02:17:59;;;;;;;606.67;565.83;;;15.70;99.90;;;;;;5022918;28;20844;-61
2022/07/22 02:20:26;;;;;;;623.60;583.03;;;15.60;99.90;;;;;;5053690;28;20045;-61
2022/07/22 02:22:52;;;;;;;531.75;500.42;;;15.60;99.90;;;;;;5053831;28;20537;-61
2022/07/22 02:25:18;;;;;;;381.23;360.67;;;15.60;99.90;;;;;;5035368;28;20052;-61
2022/07/22 02:27:43;;;;;;;405.05;383.67;;;15.50;99.90;;;;;;5049203;28;20033;-60
2022/07/22 02:30:10;;;;;;;421.15;397.42;;;15.50;99.90;;;;;;5035276;28;20044;-60
2022/07/22 02:32:36;;;;;;;383.02;362.17;;;15.50;99.90;;;;;;5052483;28;20081;-61
2022/07/22 02:35:02;;;;;;;436.55;413.38;;;15.50;99.90;;;;;;5042579;28;20122;-61
2022/07/22 02:37:29;;;;;;;601.60;563.05;;;15.50;99.90;;;;;;5055849;28;20111;-60
2022/07/22 02:39:55;;;;;;;596.58;559.20;;;15.50;99.90;;;;;;5054852;28;20040;-60
2022/07/22 02:42:22;;;;;;;601.35;563.92;;;15.60;99.90;;;;;;5064582;28;20059;-61
2022/07/22 02:44:50;;;;;;;445.13;420.70;;;15.60;99.90;;;;;;5073752;28;20055;-61
2022/07/22 02:47:16;;;;;;;407.55;386.25;;;15.60;99.90;;;;;;5071388;28;20033;-60
2022/07/22 02:49:44;;;;;;;378.02;358.90;;;15.50;99.90;;;;;;5071388;28;20052;-61
2022/07/22 02:52:10;;;;;;;346.23;328.63;;;15.50;99.90;;;;;;5074325;28;20036;-61
2022/07/22 02:54:36;;;;;;;416.55;394.83;;;15.50;99.90;;;;;;5074577;28;20050;-60
2022/07/22 02:57:01;;;;;;;490.92;463.15;;;15.40;99.90;;;;;;5063860;28;20540;-60
2022/07/22 02:59:27;;;;;;;449.40;424.08;;;15.40;99.90;;;;;;5054705;28;20054;-61
2022/07/22 03:01:53;;;;;;;381.75;362.70;;;15.40;99.90;;;;;;5054670;28;20036;-60
2022/07/22 03:04:19;;;;;;;360.95;342.75;;;15.40;99.90;;;;;;5054683;28;20072;-60
2022/07/22 03:06:45;;;;;;;393.52;372.75;;;15.40;99.90;;;;;;5054877;28;20116;-60
2022/07/22 03:09:15;;;;;;;411.88;389.73;;;15.40;99.90;;;;;;5071509;28;20456;-61
2022/07/22 03:11:43;;;;;;;432.38;409.58;;;15.40;99.90;;;;;;5052216;28;20109;-61
2022/07/22 03:14:11;;;;;;;591.83;555.50;;;15.50;99.90;;;;;;5053752;28;20098;-61
2022/07/22 03:16:37;;;;;;;590.17;553.08;;;15.50;99.90;;;;;;5054431;28;20078;-60
2022/07/22 03:19:03;;;;;;;598.53;562.55;;;15.50;99.90;;;;;;5071183;28;20079;-60
2022/07/22 03:21:29;;;;;;;623.33;585.53;;;15.50;99.90;;;;;;5036799;28;20080;-61
2022/07/22 03:23:55;;;;;;;628.97;590.60;;;15.50;99.90;;;;;;5053435;28;20533;-60
2022/07/22 03:26:22;;;;;;;702.28;658.08;;;15.60;99.90;;;;;;5071994;28;20045;-60
2022/07/22 03:28:48;;;;;;;663.40;622.47;;;15.60;99.90;;;;;;5054639;28;20055;-60
2022/07/22 03:31:14;;;;;;;668.88;627.33;;;15.60;99.90;;;;;;5054073;28;20129;-60
2022/07/22 03:33:42;;;;;;;578.83;544.78;;;15.60;99.90;;;;;;5053483;28;20635;-61
2022/07/22 03:36:09;;;;;;;723.15;672.58;;;15.50;99.90;;;;;;5053925;28;20049;-61
2022/07/22 03:38:37;;;;;;;730.78;677.20;;;15.50;99.90;;;;;;5074423;28;20051;-61
2022/07/22 03:41:03;;;;;;;671.65;629.05;;;15.50;99.90;;;;;;5074602;28;20048;-61
2022/07/22 03:43:30;;;;;;;681.17;632.80;;;15.40;99.90;;;;;;5074235;28;20470;-60
2022/07/22 03:45:57;;;;;;;653.13;607.25;;;15.40;99.90;;;;;;5065587;28;20045;-61
2022/07/22 03:48:23;;;;;;;609.05;568.42;;;15.40;99.90;;;;;;5054642;28;20062;-60
2022/07/22 03:50:50;;;;;;;655.08;614.35;;;15.40;99.90;;;;;;5053699;28;20048;-61
2022/07/22 03:53:16;;;;;;;624.42;581.83;;;15.40;99.90;;;;;;5054758;28;20095;-60
2022/07/22 03:55:42;;;;;;;688.55;643.22;;;15.40;99.90;;;;;;5054092;28;20049;-60
2022/07/22 03:58:08;;;;;;;596.38;560.97;;;15.40;99.90;;;;;;5071746;28;20036;-61
2022/07/22 04:00:34;;;;;;;638.90;599.50;;;15.40;99.90;;;;;;5072589;28;20045;-60
2022/07/22 04:03:03;;;;;;;679.40;634.97;;;15.40;99.90;;;;;;5057747;28;20082;-61
2022/07/22 04:05:49;;;;;;;651.65;608.78;;;15.40;99.90;;;;;;5089629;28;20132;-61
2022/07/22 04:08:22;;;;;;;703.92;652.33;;;15.30;99.90;;;;;;5054486;28;20036;-61
2022/07/22 04:10:48;;;;;;;632.28;592.38;;;15.30;99.90;;;;;;5053347;28;20127;-60
2022/07/22 04:13:14;;;;;;;686.35;641.22;;;15.30;99.90;;;;;;5054313;28;20075;-61
2022/07/22 04:15:46;;;;;;;630.25;585.35;;;15.30;99.90;;;;;;5054432;28;20045;-61
2022/07/22 04:18:12;;;;;;;624.65;577.10;;;15.30;99.90;;;;;;5036519;28;20111;-61
2022/07/22 04:20:37;;;;;;;577.90;539.05;;;15.30;99.90;;;;;;5040003;28;20449;-61
2022/07/22 04:23:16;;;;;;;536.45;502.30;;;15.30;99.90;;;;;;5092482;28;20095;-61
2022/07/22 04:25:44;;;;;;;512.75;482.90;;;15.30;99.90;;;;;;5073348;28;20126;-60
2022/07/22 04:28:09;;;;;;;580.53;544.38;;;15.30;99.90;;;;;;5074205;28;20043;-61
2022/07/22 04:30:36;;;;;;;618.78;582.40;;;15.30;99.90;;;;;;5056592;28;20218;-61
2022/07/22 04:33:02;;;;;;;621.03;584.80;;;15.40;99.90;;;;;;5059549;28;20124;-61
2022/07/22 04:35:31;;;;;;;577.05;540.42;;;15.40;99.90;;;;;;5034593;28;20056;-61
2022/07/22 04:38:08;;;;;;;568.50;536.72;;;15.40;99.90;;;;;;5053562;28;20171;-61
2022/07/22 04:40:35;;;;;;;605.28;568.60;;;15.40;99.90;;;;;;5073076;28;20512;-60
2022/07/22 04:43:01;;;;;;;566.60;534.92;;;15.50;99.90;;;;;;5073742;28;20048;-61
2022/07/22 04:45:27;;;;;;;557.30;527.03;;;15.50;99.90;;;;;;5071061;28;20481;-60
2022/07/22 04:47:53;;;;;;;525.53;496.40;;;15.50;99.90;;;;;;5053070;28;20071;-60
2022/07/22 04:50:19;;;;;;;649.13;610.97;;;15.50;99.90;;;;;;5056073;28;20047;-61
2022/07/22 04:52:53;;;;;;;730.63;685.15;;;15.50;99.90;;;;;;5074920;28;20037;-61
2022/07/22 04:55:19;;;;;;;543.30;512.55;;;15.40;99.90;;;;;;5057616;28;20044;-61
2022/07/22 04:57:45;;;;;;;583.33;549.78;;;15.40;99.90;;;;;;5074762;28;20413;-61
2022/07/22 05:00:11;;;;;;;589.97;554.83;;;15.40;99.90;;;;;;5076911;28;20052;-60
2022/07/22 05:02:46;;;;;;;560.60;528.35;;;15.50;99.90;;;;;;5077348;28;20040;-61
2022/07/22 05:05:12;;;;;;;666.17;625.38;;;15.50;99.90;;;;;;5067446;28;20123;-61
2022/07/22 05:07:38;;;;;;;540.25;509.63;;;15.60;99.90;;;;;;5056654;28;20102;-61
2022/07/22 05:10:04;;;;;;;808.75;753.58;;;15.60;99.90;;;;;;5057118;28;20041;-61
2022/07/22 05:12:30;;;;;;;672.70;631.75;;;15.60;99.90;;;;;;5057398;28;20040;-60
2022/07/22 05:14:56;;;;;;;822.78;767.65;;;15.60;99.90;;;;;;5074215;28;20063;-61
2022/07/22 05:17:22;;;;;;;632.75;595.78;;;15.60;99.90;;;;;;5075894;28;20028;-60
2022/07/22 05:20:06;;;;;;;681.05;639.78;;;15.60;99.90;;;;;;5077578;28;20080;-60
2022/07/22 05:22:32;;;;;;;693.53;651.13;;;15.60;99.90;;;;;;5076135;28;20044;-61
2022/07/22 05:25:01;;;;;;;793.03;741.88;;;15.60;99.90;;;;;;5076767;28;20056;-61
2022/07/22 05:27:27;;;;;;;757.85;709.30;;;15.60;99.90;;;;;;5077193;28;20120;-61
2022/07/22 05:29:53;;;;;;;728.20;682.53;;;15.60;99.90;;;;;;5076341;28;20048;-61
2022/07/22 05:32:19;;;;;;;775.80;723.80;;;15.70;99.90;;;;;;5089744;28;20032;-61
2022/07/22 05:34:47;;;;;;;871.90;805.92;;;15.70;99.90;;;;;;5055990;28;20083;-61
2022/07/22 05:37:12;;;;;;;689.63;644.92;;;15.70;99.90;;;;;;5056467;28;20467;-61
2022/07/22 05:39:38;;;;;;;576.95;542.10;;;15.80;99.90;;;;;;5074545;28;20234;-60
2022/07/22 05:42:04;;;;;;;679.35;636.05;;;15.80;99.90;;;;;;5073337;28;20067;-61
2022/07/22 05:44:31;;;;;;;599.28;563.75;;;15.80;99.90;;;;;;5057122;28;20482;-61
2022/07/22 05:46:57;;;;;;;612.10;574.88;;;15.80;99.90;;;;;;5075299;28;20130;-61
2022/07/22 05:49:25;;;;;;;645.05;604.17;;;15.80;99.90;;;;;;5075317;28;20040;-61
2022/07/22 05:52:00;;;;;;;657.13;614.97;;;15.80;99.90;;;;;;5076202;28;20547;-61
2022/07/22 05:54:27;;;;;;;674.47;631.60;;;15.80;99.90;;;;;;5076431;28;20119;-61
2022/07/22 05:56:52;;;;;;;723.85;675.22;;;15.90;99.90;;;;;;5076046;28;20040;-61
2022/07/22 05:59:18;;;;;;;469.23;444.40;;;15.90;99.90;;;;;;5078602;28;20047;-61
2022/07/22 06:01:44;;;;;;;537.08;507.75;;;15.90;99.90;;;;;;5055744;28;20124;-61
2022/07/22 06:04:30;;;;;;;663.63;620.92;;;15.90;99.90;;;;;;5054808;28;20051;-61
2022/07/22 06:06:59;;;;;;;531.88;502.98;;;15.90;99.90;;;;;;5060528;28;20119;-60
2022/07/22 06:09:25;;;;;;;452.33;427.27;;;15.90;99.90;;;;;;5060342;28;20119;-60
2022/07/22 06:11:51;;;;;;;620.78;583.17;;;16.00;99.90;;;;;;5055597;28;20051;-61
2022/07/22 06:14:17;;;;;;;462.92;438.83;;;16.00;99.90;;;;;;5074163;28;20048;-61
2022/07/22 06:16:43;;;;;;;634.60;597.58;;;16.00;99.90;;;;;;5085522;28;20063;-61
2022/07/22 06:19:08;;;;;;;526.10;497.58;;;16.00;99.90;;;;;;5058592;28;20052;-61
2022/07/22 06:21:36;;;;;;;628.22;591.35;;;16.10;99.90;;;;;;5058542;28;20048;-61
2022/07/22 06:24:02;;;;;;;563.38;532.55;;;16.10;99.90;;;;;;5055114;28;20040;-61
2022/07/22 06:26:28;;;;;;;727.38;680.17;;;16.10;99.90;;;;;;5060002;28;20113;-61
2022/07/22 06:28:54;;;;;;;589.92;555.25;;;16.20;99.90;;;;;;5055872;28;20071;-61
2022/07/22 06:31:20;;;;;;;712.45;667.78;;;16.20;99.90;;;;;;5054458;28;20044;-61
2022/07/22 06:33:46;;;;;;;531.40;502.13;;;16.20;99.90;;;;;;5062145;28;20036;-61
2022/07/22 06:36:14;;;;;;;436.50;414.63;;;16.20;99.90;;;;;;5057321;28;20075;-61
2022/07/22 06:38:40;;;;;;;393.10;372.60;;;16.20;99.90;;;;;;5054671;28;20048;-61
2022/07/22 06:41:13;;;;;;;637.30;599.65;;;16.20;99.90;;;;;;5051029;28;20063;-61
2022/07/22 06:43:54;;;;;;;659.80;619.75;;;16.30;99.90;;;;;;5037824;28;20038;-61
2022/07/22 06:46:33;;;;;;;661.63;619.80;;;16.30;99.90;;;;;;5026532;28;20049;-61
2022/07/22 06:48:59;;;;;;;576.92;544.15;;;16.30;99.90;;;;;;5052283;28;20376;-61
2022/07/22 06:51:27;;;;;;;591.45;556.10;;;16.40;99.90;;;;;;5048205;28;20049;-61
2022/07/22 06:53:54;;;;;;;598.35;563.15;;;16.50;99.90;;;;;;5034340;28;20561;-61
2022/07/22 06:56:20;;;;;;;689.83;646.78;;;16.50;99.90;;;;;;5035317;28;20041;-61
2022/07/22 06:58:47;;;;;;;631.78;593.50;;;16.60;99.90;;;;;;5035705;28;20127;-60
2022/07/22 07:01:12;;;;;;;648.85;608.67;;;16.60;99.90;;;;;;5048285;28;20128;-61
2022/07/22 07:03:51;;;;;;;602.38;566.72;;;16.70;99.90;;;;;;4999225;28;20042;-61
2022/07/22 07:06:17;;;;;;;633.05;593.42;;;16.70;99.90;;;;;;5014997;28;20045;-61
2022/07/22 07:08:57;;;;;;;621.80;584.35;;;16.80;99.90;;;;;;5027499;28;20040;-61
2022/07/22 07:11:23;;;;;;;604.55;569.00;;;16.90;99.90;;;;;;5036956;28;20103;-61
2022/07/22 07:13:51;;;;;;;651.83;611.22;;;17.00;99.90;;;;;;5033415;28;20475;-61
2022/07/22 07:16:18;;;;;;;631.58;591.67;;;17.00;99.90;;;;;;5034727;28;20124;-61
2022/07/22 07:18:44;;;;;;;610.92;574.50;;;17.00;99.90;;;;;;5036152;28;20036;-61
2022/07/22 07:21:10;;;;;;;721.60;674.72;;;17.00;99.90;;;;;;5038861;28;20044;-61
2022/07/22 07:23:36;;;;;;;756.45;706.58;;;17.00;99.90;;;;;;5033285;28;20074;-61
2022/07/22 07:26:02;;;;;;;810.45;754.80;;;17.10;99.90;;;;;;5034559;28;20451;-61
2022/07/22 07:28:29;;;;;;;638.53;599.90;;;17.20;99.90;;;;;;5014323;28;20042;-60
2022/07/22 07:30:59;;;;;;;697.63;653.53;;;17.10;99.90;;;;;;5023229;28;20107;-60
2022/07/22 07:33:26;;;;;;;705.75;660.47;;;17.10;99.90;;;;;;5032035;28;20048;-61
2022/07/22 07:35:52;;;;;;;717.08;671.28;;;17.10;99.90;;;;;;5019055;28;20077;-60
2022/07/22 07:38:27;;;;;;;704.70;659.47;;;17.10;99.90;;;;;;5031305;28;20041;-60
2022/07/22 07:40:53;;;;;;;659.45;618.60;;;17.20;99.90;;;;;;5023019;28;20045;-60
2022/07/22 07:43:20;;;;;;;671.00;629.03;;;17.20;99.90;;;;;;5046390;28;20102;-60
2022/07/22 07:45:46;;;;;;;701.90;658.13;;;17.20;99.90;;;;;;5061058;28;20075;-61
2022/07/22 07:48:12;;;;;;;722.78;675.88;;;17.20;99.90;;;;;;5053001;28;20094;-61
2022/07/22 07:50:38;;;;;;;651.40;611.40;;;17.20;99.90;;;;;;5053501;28;20052;-60
2022/07/22 07:53:05;;;;;;;714.50;668.08;;;17.20;99.90;;;;;;5054191;28;20063;-61
2022/07/22 07:55:35;;;;;;;731.40;683.75;;;17.30;99.90;;;;;;5070243;28;20072;-60
2022/07/22 07:58:02;;;;;;;724.40;677.60;;;17.30;99.90;;;;;;5071180;28;20074;-60
2022/07/22 08:00:28;;;;;;;718.28;672.05;;;17.40;99.90;;;;;;5041971;28;20037;-60
2022/07/22 08:02:55;;;;;;;779.10;727.33;;;17.40;99.90;;;;;;5071076;28;20076;-60
2022/07/22 08:05:21;;;;;;;663.35;623.05;;;17.40;99.90;;;;;;5063813;28;20079;-60
2022/07/22 08:07:49;;;;;;;542.75;511.23;;;17.50;99.90;;;;;;5054045;28;20051;-60
2022/07/22 08:10:16;;;;;;;662.40;622.45;;;17.50;99.90;;;;;;5053032;28;20040;-60
2022/07/22 08:13:01;;;;;;;652.83;612.63;;;17.60;99.90;;;;;;5053041;28;20094;-60
2022/07/22 08:15:42;;;;;;;661.60;620.95;;;17.60;99.90;;;;;;5047170;28;20483;-60
2022/07/22 08:18:15;;;;;;;666.47;626.25;;;17.70;99.90;;;;;;5040472;28;20056;-60
2022/07/22 08:20:41;;;;;;;754.22;705.88;;;17.60;99.90;;;;;;5069454;28;20052;-60
2022/07/22 08:23:07;;;;;;;581.33;548.10;;;17.60;99.90;;;;;;5052882;28;20049;-60
2022/07/22 08:25:34;;;;;;;701.40;658.53;;;17.60;99.90;;;;;;5052861;28;20032;-60
2022/07/22 08:28:00;;;;;;;686.58;643.72;;;17.60;99.90;;;;;;5055438;28;20032;-60
2022/07/22 08:30:28;;;;;;;669.85;628.47;;;17.50;99.90;;;;;;5040688;28;20383;-60
2022/07/22 08:32:56;;;;;;;775.35;723.10;;;17.50;99.90;;;;;;5057874;28;20093;-60
2022/07/22 08:35:22;;;;;;;807.75;753.47;;;17.60;99.90;;;;;;5057692;28;20170;-60
2022/07/22 08:37:48;;;;;;;850.67;791.95;;;17.70;99.90;;;;;;5072984;28;20048;-61
2022/07/22 08:40:16;;;;;;;798.70;745.00;;;17.80;99.90;;;;;;5054386;28;20024;-61
2022/07/22 08:42:44;;;;;;;820.75;764.38;;;17.90;99.90;;;;;;5050038;28;20132;-61
2022/07/22 08:45:10;;;;;;;865.75;804.97;;;18.00;99.90;;;;;;5036728;28;20098;-61
2022/07/22 08:47:37;;;;;;;866.13;804.13;;;18.10;99.90;;;;;;5036616;28;20053;-61
2022/07/22 08:50:11;;;;;;;861.25;801.03;;;18.20;99.90;;;;;;5037661;28;20085;-61
2022/07/22 08:52:49;;;;;;;855.50;795.28;;;18.20;99.90;;;;;;5036330;28;20045;-61
2022/07/22 08:55:14;;;;;;;860.97;798.95;;;18.20;99.90;;;;;;5054029;28;20029;-62
2022/07/22 08:57:46;;;;;;;850.28;790.17;;;18.10;99.90;;;;;;5037605;28;20048;-62
2022/07/22 09:00:14;;;;;;;828.33;770.80;;;18.00;99.90;;;;;;5036268;28;20045;-61
2022/07/22 09:02:41;;;;;;;752.83;703.67;;;18.00;99.90;;;;;;5037239;28;20547;-61
2022/07/22 09:05:13;;;;;;;844.35;785.80;;;17.90;99.90;;;;;;5026371;28;20050;-61
2022/07/22 09:07:41;;;;;;;811.60;756.22;;;17.90;99.90;;;;;;5019057;28;20451;-61
2022/07/22 09:10:15;;;;;;;866.38;804.95;;;17.90;99.90;;;;;;5036860;28;20072;-61
2022/07/22 09:13:04;;;;;;;829.80;772.13;;;18.00;99.90;;;;;;5052730;28;20053;-61
2022/07/22 09:15:51;;;;;;;820.70;765.03;;;18.10;99.90;;;;;;5054555;28;20513;-61
2022/07/22 09:18:54;;;;;;;797.13;743.00;;;18.10;99.90;;;;;;5055130;28;20056;-61
2022/07/22 09:21:30;;;;;;;759.05;709.17;;;18.20;99.90;;;;;;5037903;28;20036;-61
2022/07/22 09:24:29;;;;;;;789.63;737.03;;;18.30;99.90;;;;;;5056440;28;20390;-60
2022/07/22 09:27:06;;;;;;;802.70;749.03;;;18.30;99.90;;;;;;5056412;28;20036;-60
2022/07/22 09:29:50;;;;;;;830.33;774.35;;;18.30;99.90;;;;;;5056326;28;20536;-60
2022/07/22 09:32:18;;;;;;;806.65;752.58;;;18.40;99.90;;;;;;5070117;28;20087;-60
2022/07/22 09:35:06;;;;;;;828.15;769.40;;;18.30;99.90;;;;;;5053749;28;20052;-60
2022/07/22 09:37:48;;;;;;;858.00;798.20;;;18.20;99.90;;;;;;5036219;28;20542;-60
2022/07/22 09:40:18;;;;;;;904.75;837.17;;;18.10;99.90;;;;;;5039653;28;20043;-61
2022/07/22 09:42:47;;;;;;;876.78;811.78;;;18.10;99.90;;;;;;5052292;28;20053;-61
2022/07/22 09:45:14;;;;;;;857.10;796.28;;;18.00;99.90;;;;;;5055445;28;20086;-61
2022/07/22 09:47:42;;;;;;;889.42;824.45;;;17.90;99.90;;;;;;5056170;28;20036;-61
2022/07/22 09:50:32;;;;;;;825.10;768.97;;;17.80;99.90;;;;;;5054391;28;20064;-61
2022/07/22 09:53:14;;;;;;;861.83;800.28;;;17.80;99.90;;;;;;5056065;28;20356;-61
2022/07/22 09:55:45;;;;;;;856.43;795.40;;;17.80;99.90;;;;;;5054883;28;20041;-61
2022/07/22 09:58:11;;;;;;;819.10;763.03;;;17.90;99.90;;;;;;5074770;28;20281;-61
2022/07/22 10:00:39;;;;;;;808.15;753.45;;;17.80;99.90;;;;;;5055894;28;20052;-61
2022/07/22 10:03:07;;;;;;;821.35;764.90;;;17.80;99.90;;;;;;5055757;28;20094;-61
2022/07/22 10:05:36;;;;;;;870.10;808.17;;;17.70;99.90;;;;;;5057266;28;20044;-61
2022/07/22 10:08:06;;;;;;;804.83;751.33;;;17.80;99.90;;;;;;5074668;28;20032;-61
2022/07/22 10:10:35;;;;;;;768.42;716.72;;;17.70;99.90;;;;;;5055364;28;20375;-61
2022/07/22 10:13:02;;;;;;;865.42;803.53;;;17.80;99.90;;;;;;5055913;28;20119;-61
2022/07/22 10:15:31;;;;;;;763.97;713.63;;;17.80;99.90;;;;;;5066374;28;20048;-61
2022/07/22 10:18:00;;;;;;;825.80;770.28;;;17.90;99.90;;;;;;5075488;28;20119;-61
2022/07/22 10:20:28;;;;;;;800.95;747.70;;;18.00;99.90;;;;;;5057015;28;20491;-61
2022/07/22 10:23:00;;;;;;;673.67;631.83;;;18.10;99.90;;;;;;5056145;28;20052;-61
2022/07/22 10:25:29;;;;;;;795.57;742.10;;;18.20;99.90;;;;;;5093284;28;20530;-61
2022/07/22 10:28:04;;;;;;;703.55;658.88;;;18.20;99.90;;;;;;5075638;28;20051;-61
2022/07/22 10:30:40;;;;;;;799.00;744.58;;;18.40;99.90;;;;;;5084571;28;20423;-61
2022/07/22 10:33:11;;;;;;;775.47;724.47;;;18.50;99.90;;;;;;5089521;28;20387;-61
2022/07/22 10:35:52;;;;;;;755.28;706.75;;;18.60;99.90;;;;;;5073463;28;20445;-61
2022/07/22 10:38:21;;;;;;;761.83;711.92;;;18.70;99.90;;;;;;5055072;28;20045;-61
2022/07/22 10:40:56;;;;;;;732.85;685.75;;;18.90;99.90;;;;;;5072201;28;20055;-61
2022/07/22 10:43:24;;;;;;;670.60;629.75;;;18.90;99.90;;;;;;5032991;28;20054;-61
2022/07/22 10:45:54;;;;;;;732.33;685.53;;;18.90;99.90;;;;;;5051837;28;20431;-61
2022/07/22 10:48:23;;;;;;;595.60;562.10;;;18.90;99.90;;;;;;5072791;28;20075;-61
2022/07/22 10:51:04;;;;;;;615.28;580.25;;;18.70;99.90;;;;;;5072218;28;20438;-61
2022/07/22 10:53:43;;;;;;;647.25;609.15;;;18.60;99.90;;;;;;5073190;28;20048;-61
2022/07/22 10:56:23;;;;;;;784.75;733.83;;;18.60;99.90;;;;;;5068614;28;20052;-60
2022/07/22 10:58:53;;;;;;;688.92;644.70;;;18.50;99.90;;;;;;5054832;28;20044;-61
2022/07/22 11:01:22;;;;;;;640.17;599.72;;;18.30;99.90;;;;;;5073378;28;20067;-61
2022/07/22 11:03:49;;;;;;;776.53;725.05;;;18.20;99.90;;;;;;5073403;28;20041;-61
2022/07/22 11:06:23;;;;;;;795.95;741.78;;;18.20;99.90;;;;;;5067885;28;20048;-61
2022/07/22 11:08:54;;;;;;;801.60;747.25;;;18.10;99.90;;;;;;5036379;28;20052;-61
2022/07/22 11:11:42;;;;;;;826.90;769.33;;;18.10;99.90;;;;;;5052920;28;20398;-61
2022/07/22 11:14:20;;;;;;;834.28;777.08;;;18.10;99.90;;;;;;5052268;28;20045;-61
2022/07/22 11:16:49;;;;;;;898.25;833.58;;;18.30;99.90;;;;;;5052440;28;20053;-61
2022/07/22 11:19:21;;;;;;;869.10;807.25;;;18.40;99.90;;;;;;5069957;28;20043;-61
2022/07/22 11:21:51;;;;;;;858.47;797.90;;;18.70;99.90;;;;;;5072998;28;20048;-61
2022/07/22 11:24:18;;;;;;;860.22;798.17;;;18.90;99.90;;;;;;5055498;28;20099;-61
2022/07/22 11:26:46;;;;;;;848.60;787.67;;;19.10;99.90;;;;;;5064928;28;20486;-61
2022/07/22 11:29:25;;;;;;;809.85;753.25;;;19.20;99.90;;;;;;5073002;28;20044;-61
2022/07/22 11:31:51;;;;;;;783.17;730.45;;;19.30;99.90;;;;;;5072196;28;20110;-61
2022/07/22 11:34:17;;;;;;;717.78;671.67;;;19.60;99.90;;;;;;5053095;28;20044;-61
2022/07/22 11:36:45;;;;;;;834.35;774.55;;;19.70;99.90;;;;;;5072733;28;20048;-61
2022/07/22 11:39:14;;;;;;;864.28;802.13;;;20.10;99.90;;;;;;5072580;28;20390;-61
2022/07/22 11:41:40;;;;;;;841.90;782.30;;;20.40;99.90;;;;;;5079736;28;20122;-61
2022/07/22 11:44:07;;;;;;;760.58;709.28;;;20.70;99.90;;;;;;5091874;28;20386;-61
2022/07/22 11:46:38;;;;;;;744.63;695.15;;;20.90;99.90;;;;;;5092742;28;20044;-61
2022/07/22 11:49:04;;;;;;;792.13;738.53;;;20.90;99.90;;;;;;5092071;28;20458;-61
2022/07/22 11:51:32;;;;;;;781.50;727.40;;;21.30;99.90;;;;;;5092599;28;20048;-61
2022/07/22 11:53:59;;;;;;;827.42;770.63;;;21.60;99.90;;;;;;5072424;28;20044;-61
2022/07/22 11:56:25;;;;;;;816.20;760.65;;;21.20;99.90;;;;;;5071127;28;20048;-61
2022/07/22 11:58:58;;;;;;;739.40;691.03;;;21.00;99.90;;;;;;5055976;28;20040;-61
2022/07/22 12:01:26;;;;;;;775.75;723.65;;;20.70;99.90;;;;;;5076251;28;20044;-61
2022/07/22 12:03:55;;;;;;;833.92;774.17;;;20.40;99.90;;;;;;5076208;28;20040;-61
2022/07/22 12:06:22;;;;;;;739.35;690.88;;;20.20;99.90;;;;;;5076684;28;20522;-61
2022/07/22 12:08:52;;;;;;;837.30;778.92;;;20.00;99.90;;;;;;5075561;28;20045;-60
2022/07/22 12:11:19;;;;;;;834.05;775.50;;;19.90;99.90;;;;;;5075688;28;20044;-60
2022/07/22 12:13:48;;;;;;;801.75;746.17;;;19.90;99.90;;;;;;5076400;28;20485;-60
2022/07/22 12:16:19;;;;;;;765.38;713.00;;;19.80;99.90;;;;;;5075626;28;20138;-60